sensor_id;sensor_type;location;lat;lon;timestamp;pressure;altitude;pressure_sealevel;temperature;humidity
5484;BME280;2764;48.794;8.326;2023-02-11T15:31:37;77681.50;;;-140.34;39.41
5484;BME280;2764;48.794;8.326;2023-02-11T15:32:42;77709.69;;;-140.34;39.95
5484;BME280;2764;48.794;8.326;2023-02-11T15:33:45;77731.81;;;-140.34;40.05
5484;BME280;2764;48.794;8.326;2023-02-11T15:34:49;77745.88;;;-140.34;40.33
5484;BME280;2764;48.794;8.326;2023-02-11T15:35:51;77763.97;;;-140.34;40.62
5484;BME280;2764;48.794;8.326;2023-02-11T15:36:53;77810.25;;;-140.34;40.98
5484;BME280;2764;48.794;8.326;2023-02-11T15:37:58;77844.44;;;-140.34;41.51
5484;BME280;2764;48.794;8.326;2023-02-11T15:39:17;77856.50;;;-140.34;41.84
5484;BME280;2764;48.794;8.326;2023-02-11T15:40:25;77874.59;;;-140.34;41.63
5484;BME280;2764;48.794;8.326;2023-02-11T15:41:34;77882.66;;;-140.34;41.90
5484;BME280;2764;48.794;8.326;2023-02-11T15:42:36;77894.72;;;-140.34;42.10
5484;BME280;2764;48.794;8.326;2023-02-11T15:43:52;77914.81;;;-140.34;42.46
5484;BME280;2764;48.794;8.326;2023-02-11T15:46:10;77936.94;;;-140.34;42.80
5484;BME280;2764;48.794;8.326;2023-02-11T15:47:21;77940.97;;;-140.34;43.11
5484;BME280;2764;48.794;8.326;2023-02-11T15:48:36;77947.00;;;-140.34;43.42
5484;BME280;2764;48.794;8.326;2023-02-11T15:49:43;77985.22;;;-140.34;44.45
5484;BME280;2764;48.794;8.326;2023-02-11T15:50:53;78005.34;;;-140.34;44.76
5484;BME280;2764;48.794;8.326;2023-02-11T15:51:56;78019.41;;;-140.34;45.29
5484;BME280;2764;48.794;8.326;2023-02-11T15:53:01;78027.47;;;-140.34;45.25
5484;BME280;2764;48.794;8.326;2023-02-11T15:54:18;78037.53;;;-140.34;45.65
5484;BME280;2764;48.794;8.326;2023-02-11T15:55:21;78039.53;;;-140.34;45.60
5484;BME280;2764;48.794;8.326;2023-02-11T15:56:36;78061.66;;;-140.34;46.57
5484;BME280;2764;48.794;8.326;2023-02-11T15:57:50;78071.72;;;-140.34;46.59
5484;BME280;2764;48.794;8.326;2023-02-11T15:58:54;78095.84;;;-140.34;47.54
5484;BME280;2764;48.794;8.326;2023-02-11T16:00:00;78124.00;;;-140.34;48.29
5484;BME280;2764;48.794;8.326;2023-02-11T16:01:07;78154.19;;;-140.34;48.60
5484;BME280;2764;48.794;8.326;2023-02-11T16:02:26;78168.25;;;-140.34;48.74
5484;BME280;2764;48.794;8.326;2023-02-11T16:03:31;78190.41;;;-140.34;49.76
5484;BME280;2764;48.794;8.326;2023-02-11T16:04:34;78206.47;;;-140.34;50.01
5484;BME280;2764;48.794;8.326;2023-02-11T16:05:36;78236.66;;;-140.34;50.53
5484;BME280;2764;48.794;8.326;2023-02-11T16:06:40;78242.69;;;-140.34;50.95
5484;BME280;2764;48.794;8.326;2023-02-11T16:07:47;78262.81;;;-140.34;51.32
5484;BME280;2764;48.794;8.326;2023-02-11T16:08:56;78276.88;;;-140.34;51.30
5484;BME280;2764;48.794;8.326;2023-02-11T16:09:59;78286.94;;;-140.34;51.58
5484;BME280;2764;48.794;8.326;2023-02-11T16:11:03;78311.09;;;-140.34;51.79
5484;BME280;2764;48.794;8.326;2023-02-11T16:12:23;78295.00;;;-140.34;51.80
5484;BME280;2764;48.794;8.326;2023-02-11T16:13:30;78299.00;;;-140.34;52.56
5484;BME280;2764;48.794;8.326;2023-02-11T16:14:35;78311.09;;;-140.34;53.29
5484;BME280;2764;48.794;8.326;2023-02-11T16:16:47;78313.09;;;-140.34;52.32
5484;BME280;2764;48.794;8.326;2023-02-11T16:17:50;78307.06;;;-140.34;52.45
5484;BME280;2764;48.794;8.326;2023-02-11T16:18:56;78305.06;;;-140.34;52.70
5484;BME280;2764;48.794;8.326;2023-02-11T16:20:17;78301.03;;;-140.34;52.38
5484;BME280;2764;48.794;8.326;2023-02-11T16:21:27;78299.00;;;-140.34;52.06
5484;BME280;2764;48.794;8.326;2023-02-11T16:22:32;78297.00;;;-140.34;52.17
5484;BME280;2764;48.794;8.326;2023-02-11T16:23:39;78295.00;;;-140.34;52.13
5484;BME280;2764;48.794;8.326;2023-02-11T16:24:45;78297.00;;;-140.34;52.07
5484;BME280;2764;48.794;8.326;2023-02-11T16:25:50;78297.00;;;-140.34;52.03
5484;BME280;2764;48.794;8.326;2023-02-11T16:27:00;78307.06;;;-140.34;52.24
5484;BME280;2764;48.794;8.326;2023-02-11T16:28:02;78307.06;;;-140.34;51.99
5484;BME280;2764;48.794;8.326;2023-02-11T16:29:14;78307.06;;;-140.34;52.18
5484;BME280;2764;48.794;8.326;2023-02-11T16:30:23;78319.13;;;-140.34;52.75
5484;BME280;2764;48.794;8.326;2023-02-11T16:31:32;78329.19;;;-140.34;53.33
5484;BME280;2764;48.794;8.326;2023-02-11T16:32:35;78349.31;;;-140.34;54.06
5484;BME280;2764;48.794;8.326;2023-02-11T16:33:36;78357.34;;;-140.34;54.04
5484;BME280;2764;48.794;8.326;2023-02-11T16:34:38;78365.41;;;-140.34;54.50
5484;BME280;2764;48.794;8.326;2023-02-11T16:35:40;78365.41;;;-140.34;54.68
5484;BME280;2764;48.794;8.326;2023-02-11T16:36:46;78369.41;;;-140.34;55.18
5484;BME280;2764;48.794;8.326;2023-02-11T16:37:48;78379.47;;;-140.34;56.55
5484;BME280;2764;48.794;8.326;2023-02-11T16:38:50;78399.59;;;-140.34;57.78
5484;BME280;2764;48.794;8.326;2023-02-11T16:39:53;78419.72;;;-140.34;58.22
5484;BME280;2764;48.794;8.326;2023-02-11T16:40:55;78421.72;;;-140.34;58.06
5484;BME280;2764;48.794;8.326;2023-02-11T16:41:57;78431.78;;;-140.34;58.62
5484;BME280;2764;48.794;8.326;2023-02-11T16:42:59;78433.78;;;-140.34;58.98
5484;BME280;2764;48.794;8.326;2023-02-11T16:44:02;78441.84;;;-140.34;60.01
5484;BME280;2764;48.794;8.326;2023-02-11T16:45:04;78447.88;;;-140.34;60.20
5484;BME280;2764;48.794;8.326;2023-02-11T16:46:07;78457.94;;;-140.34;60.31
5484;BME280;2764;48.794;8.326;2023-02-11T16:47:26;78465.97;;;-140.34;60.36
5484;BME280;2764;48.794;8.326;2023-02-11T16:48:28;78474.03;;;-140.34;60.91
5484;BME280;2764;48.794;8.326;2023-02-11T16:49:33;78474.03;;;-140.34;61.35
5484;BME280;2764;48.794;8.326;2023-02-11T16:50:36;78482.06;;;-140.34;61.30
5484;BME280;2764;48.794;8.326;2023-02-11T16:51:39;78490.13;;;-140.34;61.81
5484;BME280;2764;48.794;8.326;2023-02-11T16:52:41;78490.13;;;-140.34;62.53
5484;BME280;2764;48.794;8.326;2023-02-11T16:53:44;78494.13;;;-140.34;62.57
5484;BME280;2764;48.794;8.326;2023-02-11T16:54:46;78496.16;;;-140.34;62.48
5484;BME280;2764;48.794;8.326;2023-02-11T16:55:48;78494.13;;;-140.34;62.24
5484;BME280;2764;48.794;8.326;2023-02-11T16:56:50;78496.16;;;-140.34;62.18
5484;BME280;2764;48.794;8.326;2023-02-11T16:57:52;78500.19;;;-140.34;62.43
5484;BME280;2764;48.794;8.326;2023-02-11T16:58:55;78504.19;;;-140.34;62.78
5484;BME280;2764;48.794;8.326;2023-02-11T16:59:56;78506.22;;;-140.34;62.69
5484;BME280;2764;48.794;8.326;2023-02-11T17:00:59;78514.25;;;-140.34;63.18
5484;BME280;2764;48.794;8.326;2023-02-11T17:02:01;78522.31;;;-140.34;64.30
5484;BME280;2764;48.794;8.326;2023-02-11T17:03:07;78524.31;;;-140.34;64.55
5484;BME280;2764;48.794;8.326;2023-02-11T17:04:23;78544.44;;;-140.34;65.10
5484;BME280;2764;48.794;8.326;2023-02-11T17:05:26;78556.50;;;-140.34;65.48
5484;BME280;2764;48.794;8.326;2023-02-11T17:06:28;78568.56;;;-140.34;65.94
5484;BME280;2764;48.794;8.326;2023-02-11T17:07:30;78566.56;;;-140.34;66.34
5484;BME280;2764;48.794;8.326;2023-02-11T17:08:32;78574.59;;;-140.34;66.64
5484;BME280;2764;48.794;8.326;2023-02-11T17:09:34;78590.69;;;-140.34;67.19
5484;BME280;2764;48.794;8.326;2023-02-11T17:10:36;78596.72;;;-140.34;67.68
5484;BME280;2764;48.794;8.326;2023-02-11T17:11:38;78604.78;;;-140.34;68.22
5484;BME280;2764;48.794;8.326;2023-02-11T17:12:40;78606.78;;;-140.34;68.21
5484;BME280;2764;48.794;8.326;2023-02-11T17:13:42;78606.78;;;-140.34;68.21
5484;BME280;2764;48.794;8.326;2023-02-11T17:14:45;78618.88;;;-140.34;68.55
5484;BME280;2764;48.794;8.326;2023-02-11T17:15:47;78612.81;;;-140.34;68.32
5484;BME280;2764;48.794;8.326;2023-02-11T17:16:49;78608.81;;;-140.34;68.15
5484;BME280;2764;48.794;8.326;2023-02-11T17:17:51;78612.81;;;-140.34;68.46
5484;BME280;2764;48.794;8.326;2023-02-11T17:18:52;78612.81;;;-140.34;68.39
5484;BME280;2764;48.794;8.326;2023-02-11T17:19:55;78616.84;;;-140.34;68.78
5484;BME280;2764;48.794;8.326;2023-02-11T17:20:57;78622.88;;;-140.34;68.69
5484;BME280;2764;48.794;8.326;2023-02-11T17:21:59;78626.91;;;-140.34;69.42
5484;BME280;2764;48.794;8.326;2023-02-11T17:23:01;78630.94;;;-140.34;69.67
5484;BME280;2764;48.794;8.326;2023-02-11T17:24:03;78630.94;;;-140.34;69.00
5484;BME280;2764;48.794;8.326;2023-02-11T17:25:06;78634.97;;;-140.34;69.01
5484;BME280;2764;48.794;8.326;2023-02-11T17:26:08;78628.91;;;-140.34;68.88
5484;BME280;2764;48.794;8.326;2023-02-11T17:27:12;78624.91;;;-140.34;68.69
5484;BME280;2764;48.794;8.326;2023-02-11T17:28:14;78628.91;;;-140.34;68.96
5484;BME280;2764;48.794;8.326;2023-02-11T17:29:19;78636.97;;;-140.34;69.79
5484;BME280;2764;48.794;8.326;2023-02-11T17:30:21;78641.00;;;-140.34;69.95
5484;BME280;2764;48.794;8.326;2023-02-11T17:31:23;78651.03;;;-140.34;70.60
5484;BME280;2764;48.794;8.326;2023-02-11T17:32:26;78659.09;;;-140.34;71.24
5484;BME280;2764;48.794;8.326;2023-02-11T17:33:28;78677.19;;;-140.34;72.02
5484;BME280;2764;48.794;8.326;2023-02-11T17:34:30;78681.22;;;-140.34;72.54
5484;BME280;2764;48.794;8.326;2023-02-11T17:35:33;78691.28;;;-140.34;72.83
5484;BME280;2764;48.794;8.326;2023-02-11T17:36:34;78689.28;;;-140.34;73.07
5484;BME280;2764;48.794;8.326;2023-02-11T17:37:37;78703.34;;;-140.34;73.39
5484;BME280;2764;48.794;8.326;2023-02-11T17:38:39;78709.38;;;-140.34;73.57
5484;BME280;2764;48.794;8.326;2023-02-11T17:39:41;78711.41;;;-140.34;73.81
5484;BME280;2764;48.794;8.326;2023-02-11T17:40:43;78725.47;;;-140.34;73.99
5484;BME280;2764;48.794;8.326;2023-02-11T17:41:44;78727.50;;;-140.34;74.16
5484;BME280;2764;48.794;8.326;2023-02-11T17:42:46;78729.50;;;-140.34;74.20
5484;BME280;2764;48.794;8.326;2023-02-11T17:43:48;78731.53;;;-140.34;73.91
5484;BME280;2764;48.794;8.326;2023-02-11T17:44:50;78739.56;;;-140.34;74.45
5484;BME280;2764;48.794;8.326;2023-02-11T17:45:52;78741.56;;;-140.34;74.58
5484;BME280;2764;48.794;8.326;2023-02-11T17:46:55;78745.59;;;-140.34;74.48
5484;BME280;2764;48.794;8.326;2023-02-11T17:47:56;78747.63;;;-140.34;74.78
5484;BME280;2764;48.794;8.326;2023-02-11T17:48:58;78749.63;;;-140.34;74.79
5484;BME280;2764;48.794;8.326;2023-02-11T17:50:00;78747.63;;;-140.34;74.70
5484;BME280;2764;48.794;8.326;2023-02-11T17:51:04;78755.66;;;-140.34;74.51
5484;BME280;2764;48.794;8.326;2023-02-11T17:52:09;78745.59;;;-140.34;74.52
5484;BME280;2764;48.794;8.326;2023-02-11T17:53:11;78747.63;;;-140.34;74.61
5484;BME280;2764;48.794;8.326;2023-02-11T17:54:16;78743.59;;;-140.34;74.37
5484;BME280;2764;48.794;8.326;2023-02-11T17:55:18;78745.59;;;-140.34;74.58
5484;BME280;2764;48.794;8.326;2023-02-11T17:56:20;78739.56;;;-140.34;74.76
5484;BME280;2764;48.794;8.326;2023-02-11T17:57:22;78747.63;;;-140.34;74.99
5484;BME280;2764;48.794;8.326;2023-02-11T17:58:24;78743.59;;;-140.34;75.34
5484;BME280;2764;48.794;8.326;2023-02-11T17:59:26;78749.63;;;-140.34;75.43
5484;BME280;2764;48.794;8.326;2023-02-11T18:00:32;78751.63;;;-140.34;75.44
5484;BME280;2764;48.794;8.326;2023-02-11T18:01:35;78755.66;;;-140.34;75.54
5484;BME280;2764;48.794;8.326;2023-02-11T18:02:37;78759.69;;;-140.34;75.78
5484;BME280;2764;48.794;8.326;2023-02-11T18:03:39;78761.69;;;-140.34;76.23
5484;BME280;2764;48.794;8.326;2023-02-11T18:04:41;78773.75;;;-140.34;76.72
5484;BME280;2764;48.794;8.326;2023-02-11T18:05:43;78777.78;;;-140.34;76.70
5484;BME280;2764;48.794;8.326;2023-02-11T18:06:45;78781.81;;;-140.34;76.75
5484;BME280;2764;48.794;8.326;2023-02-11T18:07:47;78785.84;;;-140.34;77.02
5484;BME280;2764;48.794;8.326;2023-02-11T18:08:49;78789.88;;;-140.34;77.00
5484;BME280;2764;48.794;8.326;2023-02-11T18:09:51;78787.84;;;-140.34;76.95
5484;BME280;2764;48.794;8.326;2023-02-11T18:10:53;78795.91;;;-140.34;77.00
5484;BME280;2764;48.794;8.326;2023-02-11T18:11:54;78799.91;;;-140.34;77.10
5484;BME280;2764;48.794;8.326;2023-02-11T18:12:56;78803.94;;;-140.34;77.13
5484;BME280;2764;48.794;8.326;2023-02-11T18:14:00;78801.94;;;-140.34;77.30
5484;BME280;2764;48.794;8.326;2023-02-11T18:15:02;78803.94;;;-140.34;77.31
5484;BME280;2764;48.794;8.326;2023-02-11T18:16:04;78801.94;;;-140.34;77.32
5484;BME280;2764;48.794;8.326;2023-02-11T18:17:06;78799.91;;;-140.34;77.31
5484;BME280;2764;48.794;8.326;2023-02-11T18:18:08;78801.94;;;-140.34;77.43
5484;BME280;2764;48.794;8.326;2023-02-11T18:19:11;78793.88;;;-140.34;77.12
5484;BME280;2764;48.794;8.326;2023-02-11T18:20:13;78789.88;;;-140.34;77.05
5484;BME280;2764;48.794;8.326;2023-02-11T18:21:18;78791.88;;;-140.34;76.85
5484;BME280;2764;48.794;8.326;2023-02-11T18:22:20;78787.84;;;-140.34;76.78
5484;BME280;2764;48.794;8.326;2023-02-11T18:23:22;78785.84;;;-140.34;76.71
5484;BME280;2764;48.794;8.326;2023-02-11T18:24:24;78787.84;;;-140.34;76.52
5484;BME280;2764;48.794;8.326;2023-02-11T18:25:26;78783.81;;;-140.34;76.65
5484;BME280;2764;48.794;8.326;2023-02-11T18:26:27;78781.81;;;-140.34;76.28
5484;BME280;2764;48.794;8.326;2023-02-11T18:27:29;78781.81;;;-140.34;75.98
5484;BME280;2764;48.794;8.326;2023-02-11T18:28:31;78777.78;;;-140.34;75.84
5484;BME280;2764;48.794;8.326;2023-02-11T18:29:34;78775.78;;;-140.34;75.96
5484;BME280;2764;48.794;8.326;2023-02-11T18:30:36;78773.75;;;-140.34;75.76
5484;BME280;2764;48.794;8.326;2023-02-11T18:31:37;78779.81;;;-140.34;75.92
5484;BME280;2764;48.794;8.326;2023-02-11T18:32:40;78777.78;;;-140.34;75.98
5484;BME280;2764;48.794;8.326;2023-02-11T18:33:42;78777.78;;;-140.34;75.75
5484;BME280;2764;48.794;8.326;2023-02-11T18:34:44;78775.78;;;-140.34;76.01
5484;BME280;2764;48.794;8.326;2023-02-11T18:35:46;78775.78;;;-140.34;75.73
5484;BME280;2764;48.794;8.326;2023-02-11T18:36:50;78771.75;;;-140.34;75.45
5484;BME280;2764;48.794;8.326;2023-02-11T18:37:52;78775.78;;;-140.34;75.61
5484;BME280;2764;48.794;8.326;2023-02-11T18:38:54;78767.72;;;-140.34;75.29
5484;BME280;2764;48.794;8.326;2023-02-11T18:39:57;78775.78;;;-140.34;75.14
5484;BME280;2764;48.794;8.326;2023-02-11T18:40:59;78771.75;;;-140.34;75.08
5484;BME280;2764;48.794;8.326;2023-02-11T18:42:00;78763.72;;;-140.34;74.87
5484;BME280;2764;48.794;8.326;2023-02-11T18:43:02;78763.72;;;-140.34;74.92
5484;BME280;2764;48.794;8.326;2023-02-11T18:44:04;78759.69;;;-140.34;74.94
5484;BME280;2764;48.794;8.326;2023-02-11T18:45:08;78763.72;;;-140.34;74.33
5484;BME280;2764;48.794;8.326;2023-02-11T18:46:12;78763.72;;;-140.34;74.53
5484;BME280;2764;48.794;8.326;2023-02-11T18:47:14;78763.72;;;-140.34;74.82
5484;BME280;2764;48.794;8.326;2023-02-11T18:48:17;78769.75;;;-140.34;75.01
5484;BME280;2764;48.794;8.326;2023-02-11T18:49:19;78773.75;;;-140.34;75.13
5484;BME280;2764;48.794;8.326;2023-02-11T18:50:21;78769.75;;;-140.34;74.76
5484;BME280;2764;48.794;8.326;2023-02-11T18:51:23;78767.72;;;-140.34;74.52
5484;BME280;2764;48.794;8.326;2023-02-11T18:52:25;78779.81;;;-140.34;74.70
5484;BME280;2764;48.794;8.326;2023-02-11T18:53:27;78775.78;;;-140.34;74.90
5484;BME280;2764;48.794;8.326;2023-02-11T18:54:29;78785.84;;;-140.34;74.91
5484;BME280;2764;48.794;8.326;2023-02-11T18:55:30;78787.84;;;-140.34;75.03
5484;BME280;2764;48.794;8.326;2023-02-11T18:56:32;78789.88;;;-140.34;75.06
5484;BME280;2764;48.794;8.326;2023-02-11T18:57:34;78791.88;;;-140.34;75.11
5484;BME280;2764;48.794;8.326;2023-02-11T18:58:36;78791.88;;;-140.34;75.22
5484;BME280;2764;48.794;8.326;2023-02-11T18:59:38;78793.88;;;-140.34;75.25
5484;BME280;2764;48.794;8.326;2023-02-11T19:00:42;78795.91;;;-140.34;75.45
5484;BME280;2764;48.794;8.326;2023-02-11T19:01:44;78801.94;;;-140.34;75.24
5484;BME280;2764;48.794;8.326;2023-02-11T19:02:47;78809.97;;;-140.34;74.69
5484;BME280;2764;48.794;8.326;2023-02-11T19:03:49;78807.97;;;-140.34;74.81
5484;BME280;2764;48.794;8.326;2023-02-11T19:04:51;78812.00;;;-140.34;74.69
5484;BME280;2764;48.794;8.326;2023-02-11T19:05:53;78812.00;;;-140.34;74.07
5484;BME280;2764;48.794;8.326;2023-02-11T19:06:55;78803.94;;;-140.34;73.90
5484;BME280;2764;48.794;8.326;2023-02-11T19:07:56;78803.94;;;-140.34;74.61
5484;BME280;2764;48.794;8.326;2023-02-11T19:09:00;78803.94;;;-140.34;73.94
5484;BME280;2764;48.794;8.326;2023-02-11T19:10:03;78803.94;;;-140.34;73.82
5484;BME280;2764;48.794;8.326;2023-02-11T19:11:05;78812.00;;;-140.34;74.53
5484;BME280;2764;48.794;8.326;2023-02-11T19:12:07;78812.00;;;-140.34;74.41
5484;BME280;2764;48.794;8.326;2023-02-11T19:13:10;78812.00;;;-140.34;74.05
5484;BME280;2764;48.794;8.326;2023-02-11T19:14:14;78803.94;;;-140.34;73.85
5484;BME280;2764;48.794;8.326;2023-02-11T19:15:16;78797.91;;;-140.34;73.58
5484;BME280;2764;48.794;8.326;2023-02-11T19:16:17;78799.91;;;-140.34;73.74
5484;BME280;2764;48.794;8.326;2023-02-11T19:17:20;78801.94;;;-140.34;74.15
5484;BME280;2764;48.794;8.326;2023-02-11T19:18:22;78801.94;;;-140.34;74.20
5484;BME280;2764;48.794;8.326;2023-02-11T19:19:25;78799.91;;;-140.34;73.64
5484;BME280;2764;48.794;8.326;2023-02-11T19:20:28;78797.91;;;-140.34;73.39
5484;BME280;2764;48.794;8.326;2023-02-11T19:21:34;78793.88;;;-140.34;73.26
5484;BME280;2764;48.794;8.326;2023-02-11T19:22:36;78791.88;;;-140.34;73.18
5484;BME280;2764;48.794;8.326;2023-02-11T19:23:38;78795.91;;;-140.34;73.18
5484;BME280;2764;48.794;8.326;2023-02-11T19:24:40;78791.88;;;-140.34;73.13
5484;BME280;2764;48.794;8.326;2023-02-11T19:25:46;78791.88;;;-140.34;72.83
5484;BME280;2764;48.794;8.326;2023-02-11T19:26:49;78791.88;;;-140.34;73.09
5484;BME280;2764;48.794;8.326;2023-02-11T19:27:52;78789.88;;;-140.34;72.99
5484;BME280;2764;48.794;8.326;2023-02-11T19:28:54;78791.88;;;-140.34;72.09
5484;BME280;2764;48.794;8.326;2023-02-11T19:29:56;78791.88;;;-140.34;72.37
5484;BME280;2764;48.794;8.326;2023-02-11T19:31:04;78791.88;;;-140.34;72.25
5484;BME280;2764;48.794;8.326;2023-02-11T19:32:06;78787.84;;;-140.34;72.64
5484;BME280;2764;48.794;8.326;2023-02-11T19:33:08;78791.88;;;-140.34;72.35
5484;BME280;2764;48.794;8.326;2023-02-11T19:34:14;78795.91;;;-140.34;72.39
5484;BME280;2764;48.794;8.326;2023-02-11T19:35:16;78793.88;;;-140.34;72.25
5484;BME280;2764;48.794;8.326;2023-02-11T19:36:18;78789.88;;;-140.34;72.46
5484;BME280;2764;48.794;8.326;2023-02-11T19:37:21;78789.88;;;-140.34;72.27
5484;BME280;2764;48.794;8.326;2023-02-11T19:38:24;78793.88;;;-140.34;72.58
5484;BME280;2764;48.794;8.326;2023-02-11T19:39:25;78799.91;;;-140.34;72.48
5484;BME280;2764;48.794;8.326;2023-02-11T19:40:27;78795.91;;;-140.34;72.56
5484;BME280;2764;48.794;8.326;2023-02-11T19:41:30;78783.81;;;-140.34;72.42
5484;BME280;2764;48.794;8.326;2023-02-11T19:42:34;78791.88;;;-140.34;72.72
5484;BME280;2764;48.794;8.326;2023-02-11T19:43:36;78797.91;;;-140.34;72.46
5484;BME280;2764;48.794;8.326;2023-02-11T19:44:40;78793.88;;;-140.34;72.39
5484;BME280;2764;48.794;8.326;2023-02-11T19:45:42;78795.91;;;-140.34;72.60
5484;BME280;2764;48.794;8.326;2023-02-11T19:46:43;78801.94;;;-140.34;72.64
5484;BME280;2764;48.794;8.326;2023-02-11T19:47:46;78803.94;;;-140.34;72.88
5484;BME280;2764;48.794;8.326;2023-02-11T19:48:48;78803.94;;;-140.34;72.53
5484;BME280;2764;48.794;8.326;2023-02-11T19:49:51;78812.00;;;-140.34;72.88
5484;BME280;2764;48.794;8.326;2023-02-11T19:50:52;78803.94;;;-140.34;72.70
5484;BME280;2764;48.794;8.326;2023-02-11T19:51:55;78816.00;;;-140.34;72.97
5484;BME280;2764;48.794;8.326;2023-02-11T19:53:00;78816.00;;;-140.34;72.88
5484;BME280;2764;48.794;8.326;2023-02-11T19:54:02;78816.00;;;-140.34;73.02
5484;BME280;2764;48.794;8.326;2023-02-11T19:55:05;78818.03;;;-140.34;73.32
5484;BME280;2764;48.794;8.326;2023-02-11T19:56:07;78824.06;;;-140.34;73.42
5484;BME280;2764;48.794;8.326;2023-02-11T19:57:10;78824.06;;;-140.34;73.11
5484;BME280;2764;48.794;8.326;2023-02-11T19:58:13;78820.03;;;-140.34;73.34
5484;BME280;2764;48.794;8.326;2023-02-11T19:59:15;78822.06;;;-140.34;73.29
5484;BME280;2764;48.794;8.326;2023-02-11T20:00:18;78820.03;;;-140.34;73.44
5484;BME280;2764;48.794;8.326;2023-02-11T20:01:21;78824.06;;;-140.34;73.44
5484;BME280;2764;48.794;8.326;2023-02-11T20:02:24;78820.03;;;-140.34;73.69
5484;BME280;2764;48.794;8.326;2023-02-11T20:03:26;78822.06;;;-140.34;73.67
5484;BME280;2764;48.794;8.326;2023-02-11T20:04:27;78826.06;;;-140.34;73.48
5484;BME280;2764;48.794;8.326;2023-02-11T20:05:33;78820.03;;;-140.34;73.54
5484;BME280;2764;48.794;8.326;2023-02-11T20:06:35;78828.09;;;-140.34;73.29
5484;BME280;2764;48.794;8.326;2023-02-11T20:07:36;78824.06;;;-140.34;73.36
5484;BME280;2764;48.794;8.326;2023-02-11T20:08:39;78820.03;;;-140.34;73.18
5484;BME280;2764;48.794;8.326;2023-02-11T20:09:41;78824.06;;;-140.34;73.49
5484;BME280;2764;48.794;8.326;2023-02-11T20:10:43;78824.06;;;-140.34;73.88
5484;BME280;2764;48.794;8.326;2023-02-11T20:11:45;78828.09;;;-140.34;74.21
5484;BME280;2764;48.794;8.326;2023-02-11T20:12:46;78824.06;;;-140.34;73.59
5484;BME280;2764;48.794;8.326;2023-02-11T20:13:48;78826.06;;;-140.34;73.61
5484;BME280;2764;48.794;8.326;2023-02-11T20:14:50;78826.06;;;-140.34;73.79
5484;BME280;2764;48.794;8.326;2023-02-11T20:15:51;78830.09;;;-140.34;73.96
5484;BME280;2764;48.794;8.326;2023-02-11T20:16:54;78830.09;;;-140.34;73.88
5484;BME280;2764;48.794;8.326;2023-02-11T20:17:56;78838.16;;;-140.34;74.02
5484;BME280;2764;48.794;8.326;2023-02-11T20:18:58;78834.13;;;-140.34;74.06
5484;BME280;2764;48.794;8.326;2023-02-11T20:20:00;78836.13;;;-140.34;73.83
5484;BME280;2764;48.794;8.326;2023-02-11T20:21:10;78838.16;;;-140.34;73.74
5484;BME280;2764;48.794;8.326;2023-02-11T20:22:11;78838.16;;;-140.34;73.69
5484;BME280;2764;48.794;8.326;2023-02-11T20:23:13;78842.16;;;-140.34;73.84
5484;BME280;2764;48.794;8.326;2023-02-11T20:24:16;78840.16;;;-140.34;73.81
5484;BME280;2764;48.794;8.326;2023-02-11T20:25:18;78848.19;;;-140.34;73.60
5484;BME280;2764;48.794;8.326;2023-02-11T20:26:37;78844.19;;;-140.34;73.76
5484;BME280;2764;48.794;8.326;2023-02-11T20:27:42;78836.13;;;-140.34;73.04
5484;BME280;2764;48.794;8.326;2023-02-11T20:28:45;78840.16;;;-140.34;73.34
5484;BME280;2764;48.794;8.326;2023-02-11T20:29:47;78840.16;;;-140.34;72.95
5484;BME280;2764;48.794;8.326;2023-02-11T20:30:56;78838.16;;;-140.34;73.04
5484;BME280;2764;48.794;8.326;2023-02-11T20:31:58;78840.16;;;-140.34;73.04
5484;BME280;2764;48.794;8.326;2023-02-11T20:33:00;78838.16;;;-140.34;72.98
5484;BME280;2764;48.794;8.326;2023-02-11T20:34:02;78836.13;;;-140.34;73.09
5484;BME280;2764;48.794;8.326;2023-02-11T20:35:07;78832.09;;;-140.34;73.04
5484;BME280;2764;48.794;8.326;2023-02-11T20:36:12;78832.09;;;-140.34;73.03
5484;BME280;2764;48.794;8.326;2023-02-11T20:37:14;78830.09;;;-140.34;73.12
5484;BME280;2764;48.794;8.326;2023-02-11T20:38:17;78832.09;;;-140.34;73.27
5484;BME280;2764;48.794;8.326;2023-02-11T20:39:21;78832.09;;;-140.34;73.21
5484;BME280;2764;48.794;8.326;2023-02-11T20:40:23;78830.09;;;-140.34;73.21
5484;BME280;2764;48.794;8.326;2023-02-11T20:41:28;78826.06;;;-140.34;73.13
5484;BME280;2764;48.794;8.326;2023-02-11T20:42:31;78832.09;;;-140.34;73.12
5484;BME280;2764;48.794;8.326;2023-02-11T20:43:33;78832.09;;;-140.34;73.30
5484;BME280;2764;48.794;8.326;2023-02-11T20:44:38;78836.13;;;-140.34;73.25
5484;BME280;2764;48.794;8.326;2023-02-11T20:45:40;78824.06;;;-140.34;72.88
5484;BME280;2764;48.794;8.326;2023-02-11T20:46:43;78818.03;;;-140.34;72.76
5484;BME280;2764;48.794;8.326;2023-02-11T20:47:49;78814.00;;;-140.34;72.45
5484;BME280;2764;48.794;8.326;2023-02-11T20:48:51;78818.03;;;-140.34;72.60
5484;BME280;2764;48.794;8.326;2023-02-11T20:49:53;78822.06;;;-140.34;72.60
5484;BME280;2764;48.794;8.326;2023-02-11T20:51:02;78828.09;;;-140.34;72.53
5484;BME280;2764;48.794;8.326;2023-02-11T20:52:04;78826.06;;;-140.34;72.56
5484;BME280;2764;48.794;8.326;2023-02-11T20:53:06;78828.09;;;-140.34;72.83
5484;BME280;2764;48.794;8.326;2023-02-11T20:54:16;78832.09;;;-140.34;73.46
5484;BME280;2764;48.794;8.326;2023-02-11T20:55:18;78842.16;;;-140.34;73.44
5484;BME280;2764;48.794;8.326;2023-02-11T20:56:24;78838.16;;;-140.34;73.21
5484;BME280;2764;48.794;8.326;2023-02-11T20:57:26;78840.16;;;-140.34;73.18
5484;BME280;2764;48.794;8.326;2023-02-11T20:58:28;78828.09;;;-140.34;72.68
5484;BME280;2764;48.794;8.326;2023-02-11T20:59:30;78834.13;;;-140.34;73.13
5484;BME280;2764;48.794;8.326;2023-02-11T21:00:34;78834.13;;;-140.34;73.11
5484;BME280;2764;48.794;8.326;2023-02-11T21:01:38;78836.13;;;-140.34;73.13
5484;BME280;2764;48.794;8.326;2023-02-11T21:02:44;78840.16;;;-140.34;73.35
5484;BME280;2764;48.794;8.326;2023-02-11T21:03:55;78844.19;;;-140.34;73.29
5484;BME280;2764;48.794;8.326;2023-02-11T21:04:57;78840.16;;;-140.34;73.25
5484;BME280;2764;48.794;8.326;2023-02-11T21:05:59;78836.13;;;-140.34;72.84
5484;BME280;2764;48.794;8.326;2023-02-11T21:07:01;78844.19;;;-140.34;73.11
5484;BME280;2764;48.794;8.326;2023-02-11T21:08:03;78852.22;;;-140.34;73.41
5484;BME280;2764;48.794;8.326;2023-02-11T21:09:07;78862.28;;;-140.34;73.62
5484;BME280;2764;48.794;8.326;2023-02-11T21:10:10;78860.28;;;-140.34;73.46